Terminal Aerodrome Forecast
Issued by NWS Upton, NY

Home | Current Version | Previous Version | Text Only | Print | Product List | Glossary On
Versions: 1 2 3 4 5 6 7 8 9 10 11 12 13 14 15 16 17 18 19 20 21 22 23 24 25 26 27
000
FTUS41 KOKX 230300 AAB
TAFLGA
TAF AMD
KLGA 230324Z 2303/2324 22010KT P6SM FEW250
     FM230600 22006KT P6SM FEW250
     FM231300 23010KT P6SM FEW050
     FM231600 18010KT P6SM SCT050 BKN250
     FM231900 18013G17KT P6SM SCT050 BKN250 PROB30 2323/2324 5SM
      TSRA BKN050CB=

USA.gov is the U.S. government's official web portal to all federal, state and local government web resources and services.